Stone Lake, Wisconsin
Current Conditions -  °F | °C
As of 9:53 PM on Thursday 18 Dec 2014 (Local Time) from KHYR Reporting Station
Overcast Overcast  
Wind Chill: 16°   Ceiling: 800
Heat Index: 22°   Visibility: 10mi
Dew Point: 19°   Wind: 5mph
Humidity: 89%   Direction: 130°SE
Pressure: 30.24"   Gusts: NA
Location:  45.85°N, 91.54°W
Report Text: KHYR 190353Z AUTO 13004KT 10SM OVC008 M06/M07 A3024 RMK AO2 SLP263 T10561072
Loading
Personal Weather Stations






























Interactive Weather Map New forecast layout! Learn more

10-Day Weather Forecast

Advertisements
Track Severe Weather on mobile